• Join FlightAware (Why Join?)
  • Login
  • US Flag 
Rudolph Flight #1: Arrived! 
05:15AM EST


 

Airport Tracker/Info


-or-


 

Live Flight TrackerFlight Track Log ✈ DAL671 ✈ 12-May-2013 ✈ KSLC - KGEG

Flight Track Log - Related Links

Times and Time Zones

All times are in EDT time to prevent confusion due to time zone crossing. See the DAL671 flight status page for this flight to view local times or setup timezone preferences in your user account.

Time Position Orientation Groundspeed Altitude Reporting Facility
EDT Latitude Longitude Course Direction KTS MPH feet Rate Location/Type
12:05AM 40.8047 -112.0028 328° Northwest 161 185 4,700  Level Salt Lake Center
12:06AM 40.8414 -112.0583 311° West 208 239 6,200 1,260 Climbing Salt Lake Center
12:07AM 40.8531 -112.0953 293° West 230 265 6,700 2,220 Climbing Salt Lake Center
12:07AM 40.8697 -112.1478 293° West 263 303 8,500 2,940 Climbing Salt Lake Center
12:08AM 40.8833 -112.1850 296° West 264 304 9,700 2,640 Climbing Salt Lake Center
12:09AM 40.9683 -112.3758 339° North  Level FlightAware Approximate
12:09AM 40.9267 -112.2636 306° West 272 313 12,400  Level Salt Lake Center
12:10AM 41.0782 -112.4263 328° Northwest  Level FlightAware Approximate
12:10AM 40.9919 -112.3314 322° Northwest 304 350 13,800  Level Salt Lake Center
12:11AM 41.0644 -112.4164 319° Northwest 347 399 16,200 2,040 Climbing Salt Lake Center
12:12AM 41.1464 -112.4889 326° Northwest 356 410 18,000 1,980 Climbing Salt Lake Center
12:13AM 41.2353 -112.5508 332° Northwest 361 415 20,300 1,620 Climbing Salt Lake Center
12:14AM 41.3294 -112.6175 332° Northwest 386 444 21,400 1,320 Climbing Salt Lake Center
12:15AM 41.4286 -112.6894 331° Northwest 405 466 23,100 2,040 Climbing Salt Lake Center
12:16AM 41.5283 -112.7597 332° Northwest 401 461 25,600 1,860 Climbing Salt Lake Center
12:17AM 41.6225 -112.8289 331° Northwest 390 449 26,900 1,260 Climbing Salt Lake Center
12:18AM 41.7236 -112.9006 332° Northwest 405 466 28,200 1,140 Climbing Salt Lake Center
12:19AM 41.8256 -112.9744 332° Northwest 415 478 29,300 1,020 Climbing Salt Lake Center
12:20AM 41.9294 -113.0489 332° Northwest 423 487 30,300 1,200 Climbing Salt Lake Center
12:21AM 42.0558 -113.1414 331° Northwest 430 495 31,800 1,200 Climbing Salt Lake Center
12:22AM 42.1603 -113.2169 332° Northwest 427 491 32,800 960 Climbing Salt Lake Center
12:23AM 42.2658 -113.2950 331° Northwest 432 497 33,800 960 Climbing Salt Lake Center
12:24AM 42.3708 -113.3719 332° Northwest 431 496 34,800 840 Climbing Salt Lake Center
12:25AM 42.4747 -113.4472 332° Northwest 425 489 35,600 540 Climbing Salt Lake Center
12:26AM 42.5789 -113.5258 331° Northwest 429 494 36,000 180 Climbing Salt Lake Center
12:27AM 42.6844 -113.6039 331° Northwest 437 503 36,000  Level Salt Lake Center
12:28AM 42.8039 -113.6933 331° Northwest 439 505 36,000  Level Salt Lake Center
12:29AM 42.9069 -113.7706 331° Northwest 441 507 36,000  Level Salt Lake Center
12:30AM 43.0233 -113.8583 331° Northwest 438 504 36,000  Level Salt Lake Center
12:31AM 43.1108 -113.9292 329° Northwest 437 503 36,000 240 Level Salt Lake Center
12:32AM 43.2261 -114.0144 332° Northwest 441 507 36,600 780 Climbing Salt Lake Center
12:33AM 43.3431 -114.1039 331° Northwest 430 495 37,600 660 Climbing Salt Lake Center
12:34AM 43.4406 -114.1792 331° Northwest 420 483 38,000 180 Climbing Salt Lake Center
12:35AM 43.5397 -114.2556 331° Northwest 426 490 38,000  Level Salt Lake Center
12:36AM 43.6589 -114.3467 331° Northwest 438 504 38,000  Level Salt Lake Center
12:37AM 43.7622 -114.4272 331° Northwest 444 511 38,000  Level Salt Lake Center
12:38AM 43.8811 -114.5200 331° Northwest 441 507 38,000  Level Salt Lake Center
12:39AM 43.9833 -114.5989 331° Northwest 439 505 38,000  Level Salt Lake Center
12:40AM 44.0844 -114.6769 331° Northwest 436 502 38,000  Level Salt Lake Center
12:41AM 44.2019 -114.7697 330° Northwest 436 502 38,000  Level Salt Lake Center
12:42AM 44.3031 -114.8506 330° Northwest 438 504 38,000  Level Salt Lake Center
12:43AM 44.4031 -114.9308 330° Northwest 437 503 38,000  Level Salt Lake Center
12:44AM 44.5225 -115.0256 331° Northwest 441 507 38,000  Level Salt Lake Center
12:45AM 44.6233 -115.1058 330° Northwest 439 505 38,000  Level Salt Lake Center
12:46AM 44.7417 -115.2019 330° Northwest 440 506 38,000  Level Salt Lake Center
12:47AM 44.8431 -115.2847 330° Northwest 442 509 38,000  Level Salt Lake Center
12:48AM 44.9453 -115.3669 330° Northwest 443 510 38,000  Level Salt Lake Center
12:49AM 45.0644 -115.4644 330° Northwest 445 512 38,000  Level Salt Lake Center
12:50AM 45.1661 -115.5475 330° Northwest 442 509 38,000  Level Salt Lake Center
12:51AM 45.2850 -115.6469 330° Northwest 444 511 38,000  Level Salt Lake Center
12:52AM 45.3025 -115.6614 330° Northwest 442 509 38,000  Level Seattle Center
12:53AM 45.4203 -115.7611 329° Northwest 442 509 38,000  Level Seattle Center
12:54AM 45.5219 -115.8453 330° Northwest 441 507 38,000  Level Seattle Center
12:55AM 45.6064 -115.9169 329° Northwest 443 510 38,000  Level Salt Lake Center
12:56AM 45.7086 -116.0028 330° Northwest 444 511 38,100  Climbing Salt Lake Center
12:56AM 45.7361 -116.0269 328° Northwest 445 512 38,000 -120 Descending Seattle Center
12:57AM 45.8428 -116.1150 330° Northwest 442 509 38,000 -60 Level Seattle Center
12:58AM 45.9475 -116.2047 329° Northwest 441 507 37,900 -60 Descending Seattle Center
12:59AM 46.0525 -116.2981 328° Northwest 444 511 37,900  Level Seattle Center
01:00AM 46.1578 -116.3889 329° Northwest 442 509 38,000 -480 Climbing Seattle Center
01:01AM 46.2636 -116.4769 330° Northwest 441 507 37,000 -2,340 Descending Seattle Center
01:02AM 46.3747 -116.5606 333° Northwest 449 517 33,300 -3,540 Descending Seattle Center
01:03AM 46.4947 -116.6350 337° Northwest 468 539 29,900 -3,300 Descending Seattle Center
01:04AM 46.6100 -116.7106 336° Northwest 460 529 26,700 -3,360 Descending Seattle Center
01:05AM 46.7247 -116.7853 336° Northwest 453 521 23,100 -3,360 Descending Seattle Center
01:06AM 46.8353 -116.8578 336° Northwest 441 507 20,000 -3,000 Descending Seattle Center
01:07AM 46.9408 -116.9294 335° Northwest 422 486 17,100 -2,880 Descending Seattle Center
01:08AM 47.0467 -116.9919 338° Northwest 413 475 14,300 -1,920 Descending Seattle Center
01:09AM 47.1392 -117.0611 333° Northwest 375 432 13,300 -1,140 Descending Seattle Center
01:10AM 47.2211 -117.1161 335° Northwest 324 373 12,000 -1,560 Descending Seattle Center
01:11AM 47.3108 -117.1747 336° Northwest 309 356 10,200 -1,620 Descending Seattle Center
01:12AM 47.3900 -117.2292 335° Northwest 293 337 8,800 -1,020 Descending Seattle Center
01:13AM 47.4564 -117.2747 335° Northwest 263 303 8,200 -840 Descending Seattle Center
01:14AM 47.5036 -117.3072 335° Northwest 238 274 7,200 -900 Descending Seattle Center
01:15AM 47.5586 -117.3433 336° Northwest 216 249 6,500 -960 Descending Seattle Center
01:16AM 47.6144 -117.3581 350° North 204 235 5,300 -1,140 Descending Seattle Center
01:17AM 47.6622 -117.3819 341° North 179 206 4,200 -780 Descending Seattle Center
01:18AM 47.6794 -117.4369 295° West 150 173 3,800 -660 Descending Seattle Center
01:19AM 47.6508 -117.4894 231° Southwest 141 162 2,900 -780 Descending Seattle Center
01:20AM 47.6242 -117.5289 225° Southwest 137 158 2,300 -300 Descending Seattle Center
01:21AM 47.6178 -117.5411 232° Southwest 78 90 2,300  Level Seattle Center